Time;durP1;ratioP1;P1;durP2;ratioP2;P2;SDS_P1;SDS_P2;PMS_P1;PMS_P2;Temp;Humidity;BMP_temperature;BMP_pressure;BME280_temperature;BME280_humidity;BME280_pressure;Samples;Min_cycle;Max_cycle;Signal;HPM_P1;HPM_P2
2023/08/04 00:00:09;;;;;;;16.05;3.63;;;;;;;;;;5017834;28;20781;-77
2023/08/04 00:02:34;;;;;;;14.93;3.90;;;;;;;;;;5017227;28;20046;-76
2023/08/04 00:04:59;;;;;;;17.23;3.80;;;;;;;;;;5001264;28;20048;-76
2023/08/04 00:07:25;;;;;;;16.20;3.83;;;;;;;;;;5016413;28;21896;-75
2023/08/04 00:09:50;;;;;;;18.73;3.47;;;;;;;;;;5001063;28;20044;-75
2023/08/04 00:12:15;;;;;;;21.25;4.05;;;;;;;;;;5018786;28;20037;-76
2023/08/04 00:14:41;;;;;;;17.20;3.88;;;;;;;;;;5005676;28;20042;-80
2023/08/04 00:17:06;;;;;;;16.58;4.00;;;;;;;;;;5007932;28;20033;-78
2023/08/04 00:19:31;;;;;;;17.08;3.70;;;;;;;;;;4993325;28;20212;-78
2023/08/04 00:21:57;;;;;;;15.48;3.63;;;;;;;;;;5000858;28;20037;-75
2023/08/04 00:24:22;;;;;;;13.25;3.65;;;;;;;;;;5001909;28;20068;-76
2023/08/04 00:26:47;;;;;;;13.82;3.20;;;;;;;;;;5020168;28;20041;-76
2023/08/04 00:29:13;;;;;;;20.10;3.65;;;;;;;;;;5021582;28;20041;-77
2023/08/04 00:31:38;;;;;;;20.25;3.90;;;;;;;;;;5002175;28;20029;-76
2023/08/04 00:34:04;;;;;;;15.98;4.00;;;;;;;;;;5007395;28;20375;-75
2023/08/04 00:36:29;;;;;;;15.18;3.60;;;;;;;;;;5018080;28;20033;-78
2023/08/04 00:38:54;;;;;;;18.08;4.00;;;;;;;;;;5018480;28;20033;-73
2023/08/04 00:41:20;;;;;;;13.45;3.17;;;;;;;;;;5018831;28;20033;-75
2023/08/04 00:43:48;;;;;;;12.32;3.17;;;;;;;;;;4984832;28;20927;-75
2023/08/04 00:46:13;;;;;;;16.58;3.80;;;;;;;;;;5005715;28;20037;-78
2023/08/04 00:48:39;;;;;;;12.95;3.65;;;;;;;;;;5018371;28;20095;-78
2023/08/04 00:51:04;;;;;;;15.27;3.42;;;;;;;;;;5003727;28;20045;-76
2023/08/04 00:53:35;;;;;;;12.00;3.35;;;;;;;;;;5019879;28;20037;-76
2023/08/04 00:56:00;;;;;;;14.70;3.72;;;;;;;;;;5016808;28;20060;-76
2023/08/04 00:58:26;;;;;;;11.05;3.33;;;;;;;;;;5021791;28;20120;-76
2023/08/04 01:00:51;;;;;;;14.00;3.38;;;;;;;;;;5020676;28;20048;-73
2023/08/04 01:03:18;;;;;;;11.30;3.08;;;;;;;;;;5002381;28;20497;-75
2023/08/04 01:05:50;;;;;;;20.25;3.83;;;;;;;;;;5019740;28;20039;-78
2023/08/04 01:08:21;;;;;;;21.48;3.85;;;;;;;;;;5015675;28;20129;-74
2023/08/04 01:10:55;;;;;;;15.67;3.50;;;;;;;;;;5019081;28;20095;-75
2023/08/04 01:13:21;;;;;;;13.55;3.38;;;;;;;;;;5017582;28;20501;-76
2023/08/04 01:15:47;;;;;;;15.32;4.15;;;;;;;;;;5015280;28;20059;-77
2023/08/04 01:18:12;;;;;;;14.07;3.60;;;;;;;;;;4993782;28;20037;-78
2023/08/04 01:20:38;;;;;;;13.15;3.67;;;;;;;;;;4991365;28;20041;-76
2023/08/04 01:23:03;;;;;;;13.57;3.70;;;;;;;;;;5019194;28;20514;-78
2023/08/04 01:25:33;;;;;;;16.27;3.85;;;;;;;;;;4999736;28;20048;-77
2023/08/04 01:28:00;;;;;;;9.40;3.67;;;;;;;;;;4972062;28;20118;-76
2023/08/04 01:30:26;;;;;;;14.23;4.65;;;;;;;;;;5014381;28;20040;-77
2023/08/04 01:32:51;;;;;;;13.13;4.10;;;;;;;;;;5016970;28;20033;-79
2023/08/04 01:35:17;;;;;;;14.95;4.05;;;;;;;;;;4993167;28;20042;-73
2023/08/04 01:37:45;;;;;;;12.25;3.58;;;;;;;;;;5000527;28;20432;-78
2023/08/04 01:40:11;;;;;;;9.50;3.63;;;;;;;;;;4998070;28;20186;-76
2023/08/04 01:42:36;;;;;;;9.85;3.53;;;;;;;;;;5018496;28;20501;-76
2023/08/04 01:45:02;;;;;;;13.18;3.95;;;;;;;;;;5018371;28;20037;-75
2023/08/04 01:47:27;;;;;;;15.93;4.55;;;;;;;;;;4998159;28;20469;-77
2023/08/04 01:49:53;;;;;;;20.23;4.38;;;;;;;;;;5018272;28;20540;-78
2023/08/04 01:52:18;;;;;;;14.88;4.30;;;;;;;;;;5017480;28;20034;-75
2023/08/04 01:54:43;;;;;;;17.25;3.75;;;;;;;;;;5011483;28;20059;-77
2023/08/04 01:57:09;;;;;;;11.88;3.08;;;;;;;;;;5020906;28;20029;-76
2023/08/04 01:59:34;;;;;;;10.20;3.58;;;;;;;;;;5012895;28;20037;-76
2023/08/04 02:02:01;;;;;;;10.70;3.40;;;;;;;;;;4998132;28;20037;-79
2023/08/04 02:04:27;;;;;;;9.65;3.17;;;;;;;;;;5018433;28;20803;-75
2023/08/04 02:06:55;;;;;;;12.10;3.72;;;;;;;;;;5020690;28;20556;-76
2023/08/04 02:09:22;;;;;;;7.70;3.40;;;;;;;;;;5020631;28;20033;-77
2023/08/04 02:11:50;;;;;;;10.90;3.40;;;;;;;;;;5020049;28;21492;-75
2023/08/04 02:14:16;;;;;;;15.35;3.60;;;;;;;;;;5020839;28;20079;-74
2023/08/04 02:16:41;;;;;;;13.68;3.80;;;;;;;;;;5018051;28;20576;-75
2023/08/04 02:19:09;;;;;;;15.50;5.85;;;;;;;;;;5015548;28;20075;-74
2023/08/04 02:21:35;;;;;;;12.73;3.28;;;;;;;;;;4989562;28;20576;-73
2023/08/04 02:24:03;;;;;;;16.00;3.67;;;;;;;;;;4998495;28;20045;-77
2023/08/04 02:26:28;;;;;;;12.77;3.70;;;;;;;;;;5018183;28;20052;-75
2023/08/04 02:28:56;;;;;;;12.85;3.00;;;;;;;;;;5002241;28;20076;-76
2023/08/04 02:31:23;;;;;;;12.13;3.58;;;;;;;;;;5015224;28;20037;-75
2023/08/04 02:33:48;;;;;;;12.90;4.18;;;;;;;;;;5019547;28;20032;-80
2023/08/04 02:36:14;;;;;;;20.40;4.18;;;;;;;;;;5016923;28;20055;-75
2023/08/04 02:38:39;;;;;;;13.98;3.88;;;;;;;;;;5020621;28;20076;-78
2023/08/04 02:41:05;;;;;;;10.48;3.72;;;;;;;;;;5007094;28;20127;-74
2023/08/04 02:43:30;;;;;;;16.17;4.00;;;;;;;;;;5006332;28;20041;-79
2023/08/04 02:45:56;;;;;;;13.55;3.65;;;;;;;;;;5028786;28;20496;-77
2023/08/04 02:48:26;;;;;;;10.40;3.33;;;;;;;;;;5022665;28;20459;-75
2023/08/04 02:51:12;;;;;;;11.65;3.17;;;;;;;;;;4996926;28;20036;-75
2023/08/04 02:53:45;;;;;;;11.95;3.00;;;;;;;;;;5019357;28;20128;-76
2023/08/04 02:56:14;;;;;;;9.13;2.47;;;;;;;;;;4997679;28;20324;-74
2023/08/04 02:58:40;;;;;;;9.13;3.05;;;;;;;;;;5008537;28;20165;-79
2023/08/04 03:01:07;;;;;;;16.30;4.25;;;;;;;;;;5019321;28;20029;-77
2023/08/04 03:03:33;;;;;;;14.60;3.65;;;;;;;;;;4998983;28;20160;-75
2023/08/04 03:05:59;;;;;;;12.65;3.70;;;;;;;;;;5009179;28;20048;-77
2023/08/04 03:08:24;;;;;;;12.98;3.40;;;;;;;;;;5022640;28;20091;-78
2023/08/04 03:10:50;;;;;;;15.45;3.33;;;;;;;;;;5020604;28;20076;-78
2023/08/04 03:13:15;;;;;;;9.38;3.25;;;;;;;;;;5001407;28;20176;-76
2023/08/04 03:15:41;;;;;;;12.20;2.80;;;;;;;;;;5020187;28;20140;-75
2023/08/04 03:18:06;;;;;;;13.00;3.00;;;;;;;;;;5013544;28;21990;-75
2023/08/04 03:20:35;;;;;;;11.63;2.78;;;;;;;;;;5018854;28;20383;-76
2023/08/04 03:23:00;;;;;;;8.40;2.47;;;;;;;;;;4994846;28;20037;-76
2023/08/04 03:25:29;;;;;;;7.47;2.10;;;;;;;;;;5005312;28;20110;-76
2023/08/04 03:27:54;;;;;;;7.57;2.63;;;;;;;;;;5018110;28;20029;-77
2023/08/04 03:30:19;;;;;;;6.63;2.33;;;;;;;;;;5018359;28;20797;-77
2023/08/04 03:32:45;;;;;;;13.27;2.65;;;;;;;;;;5001493;28;20025;-76
2023/08/04 03:35:10;;;;;;;15.52;2.80;;;;;;;;;;5021271;28;20037;-72
2023/08/04 03:37:36;;;;;;;12.13;3.00;;;;;;;;;;5008623;28;20029;-76
2023/08/04 03:40:01;;;;;;;9.15;2.58;;;;;;;;;;5017796;28;20037;-75
2023/08/04 03:42:27;;;;;;;9.73;3.58;;;;;;;;;;5000820;28;20065;-77
2023/08/04 03:44:52;;;;;;;12.18;3.55;;;;;;;;;;5014808;28;20033;-77
2023/08/04 03:47:17;;;;;;;11.50;2.90;;;;;;;;;;5003280;28;20064;-76
2023/08/04 03:49:43;;;;;;;6.38;2.95;;;;;;;;;;5002787;28;20033;-76
2023/08/04 03:52:08;;;;;;;12.25;3.47;;;;;;;;;;5020372;28;20390;-73
2023/08/04 03:54:34;;;;;;;13.35;3.72;;;;;;;;;;5022106;28;20785;-76
2023/08/04 03:57:02;;;;;;;13.57;3.60;;;;;;;;;;5018609;28;20087;-77
2023/08/04 03:59:27;;;;;;;17.58;4.15;;;;;;;;;;5013518;28;20129;-75
2023/08/04 04:01:53;;;;;;;13.40;3.28;;;;;;;;;;5011190;28;20207;-75
2023/08/04 04:04:18;;;;;;;15.13;3.78;;;;;;;;;;5002994;28;20053;-74
2023/08/04 04:06:44;;;;;;;12.80;2.72;;;;;;;;;;5001882;28;20048;-75
2023/08/04 04:09:09;;;;;;;13.57;3.38;;;;;;;;;;5018125;28;20509;-73
2023/08/04 04:11:34;;;;;;;10.82;3.05;;;;;;;;;;4989079;28;20122;-73
2023/08/04 04:14:00;;;;;;;9.57;2.88;;;;;;;;;;4997439;28;20049;-76
2023/08/04 04:16:29;;;;;;;15.00;3.05;;;;;;;;;;5017448;28;20481;-76
2023/08/04 04:18:55;;;;;;;10.95;2.90;;;;;;;;;;5017885;28;20188;-78
2023/08/04 04:21:21;;;;;;;8.13;2.83;;;;;;;;;;5000029;28;20627;-77
2023/08/04 04:23:47;;;;;;;10.25;2.90;;;;;;;;;;5004586;28;20072;-77
2023/08/04 04:26:12;;;;;;;13.23;3.22;;;;;;;;;;4996737;28;20541;-78
2023/08/04 04:28:37;;;;;;;8.48;2.78;;;;;;;;;;5021914;28;20234;-78
2023/08/04 04:31:03;;;;;;;11.75;3.28;;;;;;;;;;5020049;28;20094;-77
2023/08/04 04:33:28;;;;;;;11.90;3.15;;;;;;;;;;5018625;28;20029;-77
2023/08/04 04:35:53;;;;;;;7.95;2.65;;;;;;;;;;4984976;28;20033;-76
2023/08/04 04:38:19;;;;;;;8.73;2.83;;;;;;;;;;5022142;28;20928;-76
2023/08/04 04:40:53;;;;;;;17.65;3.45;;;;;;;;;;5002628;28;20394;-80
2023/08/04 04:43:19;;;;;;;7.78;2.38;;;;;;;;;;5002776;28;20045;-74
2023/08/04 04:45:47;;;;;;;10.45;2.40;;;;;;;;;;5022303;28;20077;-76
2023/08/04 04:48:13;;;;;;;10.30;2.80;;;;;;;;;;5006092;28;20040;-76
2023/08/04 04:50:39;;;;;;;16.13;2.50;;;;;;;;;;5004590;28;20530;-77
2023/08/04 04:53:04;;;;;;;10.50;2.83;;;;;;;;;;5021819;28;20053;-75
2023/08/04 04:55:30;;;;;;;13.80;2.83;;;;;;;;;;4996168;28;20132;-77
2023/08/04 04:57:55;;;;;;;12.60;2.80;;;;;;;;;;4978932;28;20033;-74
2023/08/04 05:00:23;;;;;;;14.68;3.25;;;;;;;;;;5010583;28;20216;-77
2023/08/04 05:02:48;;;;;;;14.93;2.83;;;;;;;;;;5022324;28;21257;-75
2023/08/04 05:05:14;;;;;;;13.38;3.15;;;;;;;;;;5017153;28;20041;-76
2023/08/04 05:07:39;;;;;;;10.88;2.90;;;;;;;;;;5014773;28;20041;-75
2023/08/04 05:10:04;;;;;;;15.80;2.95;;;;;;;;;;5017088;28;20037;-76
2023/08/04 05:12:30;;;;;;;8.82;2.10;;;;;;;;;;5014144;28;20033;-75
2023/08/04 05:14:55;;;;;;;14.35;2.40;;;;;;;;;;5000372;28;20045;-72
2023/08/04 05:17:20;;;;;;;12.68;2.38;;;;;;;;;;5016799;28;20036;-73
2023/08/04 05:19:46;;;;;;;11.23;2.75;;;;;;;;;;5017960;28;20048;-73
2023/08/04 05:22:17;;;;;;;14.07;2.75;;;;;;;;;;5018547;28;20079;-75
2023/08/04 05:24:42;;;;;;;11.73;2.50;;;;;;;;;;4975284;28;20581;-73
2023/08/04 05:27:10;;;;;;;11.73;2.30;;;;;;;;;;5015607;28;20101;-74
2023/08/04 05:29:38;;;;;;;10.73;2.45;;;;;;;;;;5012892;28;22532;-74
2023/08/04 05:32:03;;;;;;;9.70;2.47;;;;;;;;;;5005289;28;20036;-75
2023/08/04 05:34:29;;;;;;;10.30;2.38;;;;;;;;;;4999370;28;22716;-74
2023/08/04 05:36:54;;;;;;;18.13;2.95;;;;;;;;;;5016967;28;20260;-74
2023/08/04 05:39:19;;;;;;;12.73;2.90;;;;;;;;;;5013212;28;20031;-74
2023/08/04 05:41:47;;;;;;;12.98;3.08;;;;;;;;;;5014763;28;20052;-72
2023/08/04 05:44:13;;;;;;;13.55;3.10;;;;;;;;;;4988838;28;20124;-72
2023/08/04 05:46:38;;;;;;;11.43;2.53;;;;;;;;;;5012661;28;20041;-74
2023/08/04 05:49:05;;;;;;;11.68;2.47;;;;;;;;;;4983554;28;20064;-72
2023/08/04 05:51:30;;;;;;;12.35;2.97;;;;;;;;;;4995883;28;20036;-72
2023/08/04 05:53:55;;;;;;;12.45;2.70;;;;;;;;;;5013089;28;20061;-73
2023/08/04 05:56:20;;;;;;;13.30;2.55;;;;;;;;;;5014115;28;20505;-72
2023/08/04 05:58:46;;;;;;;10.68;2.60;;;;;;;;;;4994070;28;20478;-75
2023/08/04 06:01:11;;;;;;;15.27;3.42;;;;;;;;;;5014910;28;20025;-74
2023/08/04 06:03:36;;;;;;;12.73;3.13;;;;;;;;;;5012416;28;20239;-75
2023/08/04 06:06:02;;;;;;;13.77;3.35;;;;;;;;;;4992802;28;20616;-76
2023/08/04 06:08:27;;;;;;;14.98;3.72;;;;;;;;;;5013909;28;20547;-75
2023/08/04 06:10:53;;;;;;;10.48;2.88;;;;;;;;;;5015212;28;20741;-74
2023/08/04 06:13:19;;;;;;;16.35;3.35;;;;;;;;;;5000049;28;20037;-76
2023/08/04 06:15:44;;;;;;;13.18;3.25;;;;;;;;;;5014631;28;20041;-74
2023/08/04 06:18:09;;;;;;;15.02;3.35;;;;;;;;;;5016712;28;20169;-76
2023/08/04 06:20:35;;;;;;;11.70;3.25;;;;;;;;;;5015047;28;20068;-73
2023/08/04 06:23:00;;;;;;;16.95;3.30;;;;;;;;;;5016927;28;20047;-74
2023/08/04 06:25:25;;;;;;;10.45;2.90;;;;;;;;;;5010411;28;20047;-72
2023/08/04 06:27:51;;;;;;;14.75;2.60;;;;;;;;;;5016328;28;20037;-75
2023/08/04 06:30:16;;;;;;;12.48;2.72;;;;;;;;;;5015029;28;20544;-74
2023/08/04 06:32:41;;;;;;;11.68;2.97;;;;;;;;;;5012959;28;20565;-72
2023/08/04 06:35:07;;;;;;;14.82;3.30;;;;;;;;;;5014349;28;20037;-72
2023/08/04 06:37:34;;;;;;;15.02;3.05;;;;;;;;;;5004240;28;20044;-74
2023/08/04 06:39:59;;;;;;;15.55;3.05;;;;;;;;;;5019649;28;20544;-74
2023/08/04 06:42:24;;;;;;;11.95;2.80;;;;;;;;;;5003587;28;20036;-75
2023/08/04 06:44:50;;;;;;;17.63;3.08;;;;;;;;;;5004387;28;20092;-70
2023/08/04 06:47:15;;;;;;;18.55;3.42;;;;;;;;;;5018891;28;20313;-72
2023/08/04 06:49:43;;;;;;;15.07;3.65;;;;;;;;;;5017483;28;20848;-75
2023/08/04 06:52:09;;;;;;;11.57;2.85;;;;;;;;;;4999612;28;20345;-74
2023/08/04 06:54:37;;;;;;;13.82;3.40;;;;;;;;;;5018310;28;20549;-74
2023/08/04 06:57:02;;;;;;;18.27;3.13;;;;;;;;;;5001817;28;20258;-76
2023/08/04 06:59:28;;;;;;;15.85;2.80;;;;;;;;;;5019744;28;20087;-75
2023/08/04 07:01:55;;;;;;;13.52;3.00;;;;;;;;;;5018874;28;20048;-73
2023/08/04 07:04:20;;;;;;;17.20;3.10;;;;;;;;;;5018906;28;20049;-75
2023/08/04 07:06:46;;;;;;;17.45;2.78;;;;;;;;;;5019576;28;20279;-76
2023/08/04 07:09:11;;;;;;;13.15;2.33;;;;;;;;;;5015345;28;20032;-73
2023/08/04 07:11:37;;;;;;;10.23;2.63;;;;;;;;;;5015132;28;20144;-74
2023/08/04 07:14:02;;;;;;;11.05;2.42;;;;;;;;;;4996890;28;20426;-72
2023/08/04 07:16:27;;;;;;;13.70;2.42;;;;;;;;;;5016693;28;20044;-72
2023/08/04 07:18:56;;;;;;;16.33;2.08;;;;;;;;;;5014986;28;20043;-74
2023/08/04 07:21:22;;;;;;;10.88;2.10;;;;;;;;;;5016020;28;20041;-75
2023/08/04 07:23:47;;;;;;;11.32;2.08;;;;;;;;;;4997763;28;20051;-72
2023/08/04 07:26:12;;;;;;;13.52;2.80;;;;;;;;;;4979871;28;20037;-75
2023/08/04 07:28:38;;;;;;;10.43;2.08;;;;;;;;;;5000254;28;20037;-74
2023/08/04 07:31:10;;;;;;;12.35;2.60;;;;;;;;;;5017108;28;20028;-75
2023/08/04 07:33:36;;;;;;;10.20;2.20;;;;;;;;;;5015988;28;20037;-74
2023/08/04 07:36:02;;;;;;;9.30;1.80;;;;;;;;;;4996337;28;20373;-73
2023/08/04 07:38:28;;;;;;;11.35;2.10;;;;;;;;;;5015882;28;20498;-73
2023/08/04 07:40:56;;;;;;;20.38;3.40;;;;;;;;;;5017203;28;20029;-75
2023/08/04 07:43:21;;;;;;;11.50;2.00;;;;;;;;;;5000957;28;20181;-75
2023/08/04 07:45:47;;;;;;;11.52;4.50;;;;;;;;;;4995738;28;20040;-75
2023/08/04 07:48:12;;;;;;;12.00;3.10;;;;;;;;;;5010984;28;20111;-75
2023/08/04 07:50:45;;;;;;;9.70;2.20;;;;;;;;;;4997032;28;20051;-73
2023/08/04 07:53:13;;;;;;;11.00;1.92;;;;;;;;;;4997442;28;20041;-75
2023/08/04 07:55:39;;;;;;;12.10;2.45;;;;;;;;;;4995841;28;20048;-74
2023/08/04 07:58:08;;;;;;;14.95;1.98;;;;;;;;;;4995717;28;20061;-74
2023/08/04 08:00:34;;;;;;;10.57;2.22;;;;;;;;;;5012843;28;20049;-76
2023/08/04 08:02:59;;;;;;;15.70;2.50;;;;;;;;;;5005178;28;20881;-75
2023/08/04 08:05:25;;;;;;;13.07;2.65;;;;;;;;;;5015082;28;20241;-74
2023/08/04 08:07:50;;;;;;;11.57;2.30;;;;;;;;;;4997227;28;20061;-73
2023/08/04 08:10:17;;;;;;;9.15;1.90;;;;;;;;;;5014878;28;20029;-73
2023/08/04 08:12:42;;;;;;;12.88;2.33;;;;;;;;;;5013775;28;20083;-74
2023/08/04 08:15:07;;;;;;;9.02;1.70;;;;;;;;;;5015993;28;22293;-74
2023/08/04 08:17:33;;;;;;;8.25;1.80;;;;;;;;;;4994145;28;20033;-74
2023/08/04 08:20:00;;;;;;;13.27;2.20;;;;;;;;;;5013442;28;20040;-74
2023/08/04 08:22:26;;;;;;;10.00;1.80;;;;;;;;;;5006521;28;20444;-75
2023/08/04 08:24:55;;;;;;;9.07;1.45;;;;;;;;;;5003480;28;20052;-74
2023/08/04 08:27:20;;;;;;;10.13;1.65;;;;;;;;;;5012331;28;20033;-74
2023/08/04 08:29:45;;;;;;;10.68;1.90;;;;;;;;;;5014020;28;20052;-75
2023/08/04 08:32:11;;;;;;;6.78;1.85;;;;;;;;;;5000616;28;20033;-75
2023/08/04 08:34:36;;;;;;;9.85;1.55;;;;;;;;;;5003372;28;20523;-76
2023/08/04 08:37:02;;;;;;;7.68;1.60;;;;;;;;;;4992103;28;20222;-76
2023/08/04 08:39:28;;;;;;;8.18;1.88;;;;;;;;;;4995017;28;20038;-75
2023/08/04 08:41:54;;;;;;;9.55;1.50;;;;;;;;;;5005621;28;20043;-75
2023/08/04 08:44:19;;;;;;;8.48;1.55;;;;;;;;;;4993771;28;21194;-77
2023/08/04 08:46:45;;;;;;;7.53;1.73;;;;;;;;;;5013218;28;20041;-74
2023/08/04 08:49:11;;;;;;;11.55;2.38;;;;;;;;;;5009783;28;20760;-73
2023/08/04 08:51:37;;;;;;;15.30;2.30;;;;;;;;;;5004253;28;20067;-73
2023/08/04 08:54:03;;;;;;;7.80;1.60;;;;;;;;;;5014712;28;20037;-77
2023/08/04 08:56:30;;;;;;;6.57;1.50;;;;;;;;;;4996154;28;20696;-74
2023/08/04 08:58:56;;;;;;;12.25;2.92;;;;;;;;;;5016865;28;21832;-74
2023/08/04 09:01:21;;;;;;;6.50;1.83;;;;;;;;;;5015943;28;20396;-74
2023/08/04 09:03:47;;;;;;;10.02;1.27;;;;;;;;;;5014183;28;20529;-75
2023/08/04 09:06:14;;;;;;;6.55;1.50;;;;;;;;;;5009416;28;20037;-74
2023/08/04 09:08:39;;;;;;;7.13;1.50;;;;;;;;;;5005540;28;20048;-75
2023/08/04 09:11:05;;;;;;;8.48;1.52;;;;;;;;;;5012370;28;20032;-74
2023/08/04 09:13:31;;;;;;;10.80;1.42;;;;;;;;;;4998414;28;20032;-75
2023/08/04 09:15:58;;;;;;;11.00;1.70;;;;;;;;;;5016312;28;20036;-75
2023/08/04 09:18:27;;;;;;;9.27;1.90;;;;;;;;;;4997605;28;20063;-73
2023/08/04 09:21:04;;;;;;;10.25;1.65;;;;;;;;;;5015692;28;20100;-74
2023/08/04 09:23:30;;;;;;;12.40;1.73;;;;;;;;;;5017937;28;20048;-73
2023/08/04 09:25:56;;;;;;;6.15;1.73;;;;;;;;;;5019269;28;20040;-72
2023/08/04 09:28:21;;;;;;;8.43;1.20;;;;;;;;;;5015906;28;20025;-74
2023/08/04 09:31:02;;;;;;;7.13;1.20;;;;;;;;;;5016829;28;20037;-74
2023/08/04 09:33:28;;;;;;;13.63;1.75;;;;;;;;;;4982606;28;20510;-74
2023/08/04 09:36:06;;;;;;;5.88;1.17;;;;;;;;;;4997331;28;20080;-76
2023/08/04 09:38:33;;;;;;;9.23;1.88;;;;;;;;;;5012453;28;20040;-76
2023/08/04 09:41:01;;;;;;;6.78;1.52;;;;;;;;;;5017814;28;20037;-73
2023/08/04 09:43:27;;;;;;;6.07;1.50;;;;;;;;;;5016591;28;20501;-75
2023/08/04 09:46:02;;;;;;;13.38;1.92;;;;;;;;;;5018785;28;20044;-74
2023/08/04 09:48:30;;;;;;;10.23;1.73;;;;;;;;;;5016272;28;20034;-74
2023/08/04 09:51:05;;;;;;;5.75;1.52;;;;;;;;;;4982689;28;20069;-74
2023/08/04 09:53:33;;;;;;;7.57;1.67;;;;;;;;;;5018456;28;20043;-74
2023/08/04 09:55:59;;;;;;;6.50;1.70;;;;;;;;;;5017817;28;20045;-74
2023/08/04 09:58:25;;;;;;;5.55;1.75;;;;;;;;;;5000366;28;20508;-76
2023/08/04 10:00:50;;;;;;;7.90;2.00;;;;;;;;;;4998275;28;20045;-76
2023/08/04 10:03:16;;;;;;;11.95;2.03;;;;;;;;;;4996775;28;22313;-73
2023/08/04 10:05:41;;;;;;;9.60;1.92;;;;;;;;;;5010781;28;20072;-74
2023/08/04 10:08:07;;;;;;;7.90;1.95;;;;;;;;;;5012797;28;20742;-73
2023/08/04 10:10:32;;;;;;;8.90;1.83;;;;;;;;;;5015475;28;20048;-75
2023/08/04 10:12:58;;;;;;;8.88;1.42;;;;;;;;;;5012975;28;20037;-73
2023/08/04 10:15:23;;;;;;;11.40;1.48;;;;;;;;;;5011803;28;20112;-75
2023/08/04 10:17:48;;;;;;;7.65;1.50;;;;;;;;;;4994973;28;20037;-75
2023/08/04 10:20:14;;;;;;;11.30;1.60;;;;;;;;;;5014815;28;20037;-72
2023/08/04 10:22:41;;;;;;;4.68;1.08;;;;;;;;;;5013928;28;20029;-74
2023/08/04 10:25:15;;;;;;;8.50;1.33;;;;;;;;;;5015007;28;20124;-74
2023/08/04 10:27:47;;;;;;;10.60;1.88;;;;;;;;;;5014868;28;20060;-75
2023/08/04 10:30:15;;;;;;;7.50;1.42;;;;;;;;;;4998119;28;20091;-76
2023/08/04 10:32:41;;;;;;;6.20;1.25;;;;;;;;;;5013015;28;20045;-73
2023/08/04 10:35:16;;;;;;;8.98;1.20;;;;;;;;;;5015609;28;20037;-71
2023/08/04 10:37:59;;;;;;;9.50;1.60;;;;;;;;;;5013693;28;20037;-75
2023/08/04 10:40:31;;;;;;;9.23;1.50;;;;;;;;;;4998006;28;20833;-74
2023/08/04 10:43:04;;;;;;;5.18;1.40;;;;;;;;;;5014307;28;20044;-77
2023/08/04 10:45:49;;;;;;;9.13;1.42;;;;;;;;;;4978697;28;20034;-74
2023/08/04 10:48:14;;;;;;;10.25;1.75;;;;;;;;;;5016706;28;20064;-78
2023/08/04 10:50:39;;;;;;;7.40;1.42;;;;;;;;;;5019918;28;20104;-76
2023/08/04 10:53:07;;;;;;;9.75;2.20;;;;;;;;;;5016986;28;20059;-76
2023/08/04 10:55:33;;;;;;;7.97;1.58;;;;;;;;;;4984784;28;20048;-70
2023/08/04 10:57:58;;;;;;;10.75;1.95;;;;;;;;;;5017687;28;20393;-74
2023/08/04 11:00:24;;;;;;;10.50;1.80;;;;;;;;;;5018446;28;20037;-76
2023/08/04 11:02:52;;;;;;;10.63;2.00;;;;;;;;;;5013923;28;21125;-76
2023/08/04 11:05:21;;;;;;;12.88;1.70;;;;;;;;;;5015236;28;20044;-75
2023/08/04 11:07:46;;;;;;;9.43;1.70;;;;;;;;;;5017339;28;20072;-76
2023/08/04 11:10:12;;;;;;;7.80;1.60;;;;;;;;;;5016878;28;20108;-76
2023/08/04 11:12:38;;;;;;;10.98;1.88;;;;;;;;;;5018481;28;20032;-71
2023/08/04 11:15:03;;;;;;;9.43;1.73;;;;;;;;;;4997990;28;20040;-74
2023/08/04 11:17:29;;;;;;;9.57;1.80;;;;;;;;;;5011369;28;20059;-74
2023/08/04 11:19:54;;;;;;;9.50;1.70;;;;;;;;;;4998746;28;20059;-73
2023/08/04 11:22:23;;;;;;;11.93;1.60;;;;;;;;;;5009777;28;20100;-69
2023/08/04 11:24:52;;;;;;;5.85;1.17;;;;;;;;;;5012014;28;20763;-74
2023/08/04 11:27:18;;;;;;;6.35;1.40;;;;;;;;;;5013301;28;20037;-73
2023/08/04 11:29:44;;;;;;;9.85;1.42;;;;;;;;;;4998065;28;20035;-73
2023/08/04 11:32:09;;;;;;;6.57;1.30;;;;;;;;;;4995593;28;20033;-72
2023/08/04 11:34:35;;;;;;;6.75;0.95;;;;;;;;;;4993663;28;20067;-73
2023/08/04 11:37:00;;;;;;;7.15;1.50;;;;;;;;;;4998247;28;20041;-74
2023/08/04 11:39:27;;;;;;;10.25;1.65;;;;;;;;;;4996780;28;20191;-73
2023/08/04 11:41:52;;;;;;;9.50;1.65;;;;;;;;;;5015310;28;20040;-72
2023/08/04 11:44:18;;;;;;;7.60;1.83;;;;;;;;;;5015621;28;20147;-74
2023/08/04 11:46:43;;;;;;;7.00;1.75;;;;;;;;;;4996687;28;20047;-73
2023/08/04 11:49:09;;;;;;;10.55;1.50;;;;;;;;;;5001406;28;20047;-73
2023/08/04 11:51:34;;;;;;;10.85;1.73;;;;;;;;;;5015271;28;20068;-71
2023/08/04 11:53:59;;;;;;;8.75;1.80;;;;;;;;;;5001874;28;20570;-74
2023/08/04 11:56:35;;;;;;;11.80;1.40;;;;;;;;;;5015878;28;20084;-73
2023/08/04 11:59:08;;;;;;;6.95;1.40;;;;;;;;;;5016117;28;20059;-73
2023/08/04 12:01:34;;;;;;;11.13;1.83;;;;;;;;;;4997093;28;20059;-75
2023/08/04 12:04:00;;;;;;;8.63;1.42;;;;;;;;;;5016314;28;20060;-72
2023/08/04 12:06:26;;;;;;;10.27;1.60;;;;;;;;;;5015254;28;20037;-77
2023/08/04 12:09:02;;;;;;;7.38;1.30;;;;;;;;;;5003529;28;20103;-77
2023/08/04 12:11:28;;;;;;;11.02;1.30;;;;;;;;;;5010007;28;20037;-75
2023/08/04 12:14:09;;;;;;;9.43;1.30;;;;;;;;;;4993970;28;20087;-77
2023/08/04 12:16:51;;;;;;;6.32;1.30;;;;;;;;;;5012295;28;20040;-76
2023/08/04 12:19:16;;;;;;;7.78;1.45;;;;;;;;;;5013549;28;20102;-76
2023/08/04 12:21:41;;;;;;;6.32;1.30;;;;;;;;;;4997627;28;20754;-76
2023/08/04 12:24:07;;;;;;;4.50;1.17;;;;;;;;;;5013356;28;20136;-74
2023/08/04 12:26:32;;;;;;;5.00;1.17;;;;;;;;;;5014759;28;20103;-77
2023/08/04 12:28:57;;;;;;;5.75;1.17;;;;;;;;;;4988729;28;20296;-75
2023/08/04 12:31:23;;;;;;;5.57;1.20;;;;;;;;;;4993182;28;20074;-77
2023/08/04 12:33:48;;;;;;;5.47;1.20;;;;;;;;;;5008503;28;20041;-75
2023/08/04 12:36:16;;;;;;;9.90;1.65;;;;;;;;;;5005500;28;20114;-76
2023/08/04 12:38:41;;;;;;;10.50;1.67;;;;;;;;;;5007658;28;20041;-76
2023/08/04 12:41:10;;;;;;;6.15;1.20;;;;;;;;;;4990669;28;20095;-76
2023/08/04 12:43:35;;;;;;;8.48;1.35;;;;;;;;;;5009717;28;20416;-76
2023/08/04 12:46:00;;;;;;;6.50;1.70;;;;;;;;;;5011870;28;20039;-75
2023/08/04 12:48:28;;;;;;;6.72;1.15;;;;;;;;;;4994870;28;20104;-75
2023/08/04 12:50:54;;;;;;;5.55;2.00;;;;;;;;;;5014071;28;20090;-76
2023/08/04 12:53:19;;;;;;;6.75;1.50;;;;;;;;;;4983416;28;20323;-77
2023/08/04 12:55:44;;;;;;;8.07;1.20;;;;;;;;;;4993200;28;20060;-78
2023/08/04 12:58:10;;;;;;;4.95;1.10;;;;;;;;;;5011675;28;20130;-75
2023/08/04 13:00:35;;;;;;;8.93;1.40;;;;;;;;;;5014602;28;20040;-78
2023/08/04 13:03:00;;;;;;;7.65;1.70;;;;;;;;;;5012803;28;20341;-72
2023/08/04 13:05:26;;;;;;;6.72;1.38;;;;;;;;;;5001290;28;20033;-74
2023/08/04 13:07:51;;;;;;;5.75;0.90;;;;;;;;;;5011403;28;20053;-76
2023/08/04 13:10:16;;;;;;;6.68;1.20;;;;;;;;;;5009745;28;20028;-75
2023/08/04 13:12:42;;;;;;;3.65;0.70;;;;;;;;;;5012140;28;20033;-74
2023/08/04 13:15:07;;;;;;;7.47;1.10;;;;;;;;;;5011136;28;20037;-74
2023/08/04 13:17:35;;;;;;;5.47;1.20;;;;;;;;;;5011085;28;20152;-76
2023/08/04 13:20:00;;;;;;;4.05;0.80;;;;;;;;;;5010862;28;20321;-75
2023/08/04 13:22:28;;;;;;;3.55;0.80;;;;;;;;;;5007422;28;20063;-76
2023/08/04 13:24:53;;;;;;;2.58;0.75;;;;;;;;;;5011584;28;20045;-76
2023/08/04 13:27:19;;;;;;;5.55;1.00;;;;;;;;;;5012545;28;20028;-74
2023/08/04 13:29:45;;;;;;;3.95;1.15;;;;;;;;;;4992206;28;20132;-74
2023/08/04 13:32:16;;;;;;;5.97;1.00;;;;;;;;;;5011389;28;20087;-74
2023/08/04 13:34:41;;;;;;;5.18;1.23;;;;;;;;;;5010623;28;20037;-76
2023/08/04 13:37:08;;;;;;;3.58;0.70;;;;;;;;;;5008278;28;20048;-74
2023/08/04 13:39:34;;;;;;;2.08;0.82;;;;;;;;;;4992071;28;20033;-76
2023/08/04 13:41:59;;;;;;;3.85;0.80;;;;;;;;;;5010555;28;20064;-76
2023/08/04 13:44:24;;;;;;;4.32;1.13;;;;;;;;;;4994742;28;20064;-74
2023/08/04 13:46:50;;;;;;;3.20;0.90;;;;;;;;;;5007176;28;20196;-75
2023/08/04 13:49:15;;;;;;;5.57;0.98;;;;;;;;;;5006926;28;22238;-77
2023/08/04 13:51:40;;;;;;;4.82;1.20;;;;;;;;;;5006338;28;20123;-75
2023/08/04 13:54:06;;;;;;;4.68;1.00;;;;;;;;;;5006372;28;20029;-74
2023/08/04 13:56:32;;;;;;;5.60;1.20;;;;;;;;;;4992893;28;20529;-76
2023/08/04 13:58:59;;;;;;;5.93;1.40;;;;;;;;;;5007841;28;20041;-76
2023/08/04 14:01:24;;;;;;;8.45;1.60;;;;;;;;;;4990052;28;20025;-73
2023/08/04 14:03:50;;;;;;;8.43;1.48;;;;;;;;;;4989386;28;20052;-76
2023/08/04 14:06:15;;;;;;;7.00;1.30;;;;;;;;;;4986796;28;20033;-76
2023/08/04 14:08:40;;;;;;;5.60;1.65;;;;;;;;;;5009653;28;20115;-76
2023/08/04 14:11:06;;;;;;;7.53;1.58;;;;;;;;;;5010848;28;20052;-76
2023/08/04 14:13:31;;;;;;;5.43;1.02;;;;;;;;;;5010567;28;20121;-75
2023/08/04 14:15:56;;;;;;;6.25;1.30;;;;;;;;;;5010426;28;20042;-77
2023/08/04 14:18:22;;;;;;;4.05;1.25;;;;;;;;;;4985420;28;20037;-75
2023/08/04 14:20:47;;;;;;;11.27;1.70;;;;;;;;;;5008370;28;22339;-71
2023/08/04 14:23:14;;;;;;;8.82;1.60;;;;;;;;;;5009148;28;20059;-77
2023/08/04 14:25:44;;;;;;;10.68;1.88;;;;;;;;;;5008548;28;20039;-75
2023/08/04 14:28:09;;;;;;;8.60;1.80;;;;;;;;;;5010156;28;21607;-74
2023/08/04 14:30:34;;;;;;;5.30;1.15;;;;;;;;;;5008845;28;20048;-73